sensor_id;sensor_type;location;lat;lon;timestamp;pressure;altitude;pressure_sealevel;temperature;humidity
69717;BME280;67420;46.144;19.666;2023-07-29T00:09:56;99777.31;;;24.89;53.29
69717;BME280;67420;46.144;19.666;2023-07-29T00:19:59;99781.53;;;24.91;53.43
69717;BME280;67420;46.144;19.666;2023-07-29T00:30:01;99789.63;;;24.91;53.10
69717;BME280;67420;46.144;19.666;2023-07-29T00:40:09;99773.94;;;24.87;53.49
69717;BME280;67420;46.144;19.666;2023-07-29T00:50:15;99779.69;;;24.92;53.38
69717;BME280;67420;46.144;19.666;2023-07-29T01:00:17;99776.31;;;24.90;53.31
69717;BME280;67420;46.144;19.666;2023-07-29T01:10:31;99770.06;;;24.89;53.53
69717;BME280;67420;46.144;19.666;2023-07-29T01:20:40;99764.50;;;24.91;53.30
69717;BME280;67420;46.144;19.666;2023-07-29T01:30:45;99751.88;;;24.91;53.27
69717;BME280;67420;46.144;19.666;2023-07-29T01:40:50;99747.66;;;24.89;53.44
69717;BME280;67420;46.144;19.666;2023-07-29T01:50:53;99743.59;;;24.85;53.51
69717;BME280;67420;46.144;19.666;2023-07-29T02:00:55;99738.22;;;24.85;53.53
69717;BME280;67420;46.144;19.666;2023-07-29T02:10:57;99754.91;;;24.88;53.65
69717;BME280;67420;46.144;19.666;2023-07-29T02:20:59;99756.91;;;24.86;53.49
69717;BME280;67420;46.144;19.666;2023-07-29T02:31:17;99760.13;;;24.90;53.57
69717;BME280;67420;46.144;19.666;2023-07-29T02:41:19;99760.97;;;24.90;53.61
69717;BME280;67420;46.144;19.666;2023-07-29T02:51:21;99766.03;;;24.85;53.44
69717;BME280;67420;46.144;19.666;2023-07-29T03:01:24;99762.81;;;24.90;53.63
69717;BME280;67420;46.144;19.666;2023-07-29T03:11:27;99775.63;;;24.88;53.48
69717;BME280;67420;46.144;19.666;2023-07-29T03:21:29;99766.34;;;24.82;53.63
69717;BME280;67420;46.144;19.666;2023-07-29T03:31:31;99772.25;;;24.86;53.44
69717;BME280;67420;46.144;19.666;2023-07-29T03:41:33;99785.56;;;24.87;53.50
69717;BME280;67420;46.144;19.666;2023-07-29T03:51:35;99773.25;;;24.85;53.69
69717;BME280;67420;46.144;19.666;2023-07-29T04:01:37;99770.25;;;24.88;53.53
69717;BME280;67420;46.144;19.666;2023-07-29T04:11:40;99772.25;;;24.86;53.55
69717;BME280;67420;46.144;19.666;2023-07-29T04:21:42;99778.31;;;24.88;53.47
69717;BME280;67420;46.144;19.666;2023-07-29T04:31:44;99775.13;;;24.84;53.61
69717;BME280;67420;46.144;19.666;2023-07-29T04:41:46;99790.13;;;24.87;53.59
69717;BME280;67420;46.144;19.666;2023-07-29T04:51:48;99798.03;;;24.88;53.54
69717;BME280;67420;46.144;19.666;2023-07-29T05:01:50;99795.66;;;24.85;53.49
69717;BME280;67420;46.144;19.666;2023-07-29T05:11:55;99791.28;;;24.84;53.49
69717;BME280;67420;46.144;19.666;2023-07-29T05:21:58;99809.66;;;24.89;53.63
69717;BME280;67420;46.144;19.666;2023-07-29T05:31:59;99810.50;;;24.89;53.70
69717;BME280;67420;46.144;19.666;2023-07-29T05:42:02;99821.28;;;24.89;53.63
69717;BME280;67420;46.144;19.666;2023-07-29T05:52:05;99826.53;;;24.91;53.54
69717;BME280;67420;46.144;19.666;2023-07-29T06:02:07;99825.84;;;24.89;53.33
69717;BME280;67420;46.144;19.666;2023-07-29T06:12:08;99835.63;;;24.90;53.47
69717;BME280;67420;46.144;19.666;2023-07-29T06:22:11;99852.63;;;24.90;53.25
69717;BME280;67420;46.144;19.666;2023-07-29T06:32:13;99854.31;;;24.91;53.71
69717;BME280;67420;46.144;19.666;2023-07-29T06:42:15;99857.03;;;24.91;53.31
69717;BME280;67420;46.144;19.666;2023-07-29T06:52:17;99855.50;;;24.89;53.43
69717;BME280;67420;46.144;19.666;2023-07-29T07:02:19;99858.19;;;24.89;53.57
69717;BME280;67420;46.144;19.666;2023-07-29T07:12:22;99863.41;;;24.90;53.36
69717;BME280;67420;46.144;19.666;2023-07-29T07:22:24;99857.53;;;24.95;53.57
69717;BME280;67420;46.144;19.666;2023-07-29T07:32:26;99850.47;;;24.94;53.44
69717;BME280;67420;46.144;19.666;2023-07-29T07:42:27;99844.22;;;24.93;53.50
69717;BME280;67420;46.144;19.666;2023-07-29T07:52:29;99838.66;;;24.95;53.46
69717;BME280;67420;46.144;19.666;2023-07-29T08:02:31;99852.81;;;24.97;53.40
69717;BME280;67420;46.144;19.666;2023-07-29T08:12:33;99852.81;;;24.97;53.49
69717;BME280;67420;46.144;19.666;2023-07-29T08:22:35;99853.16;;;24.94;53.45
69717;BME280;67420;46.144;19.666;2023-07-29T08:32:37;99848.28;;;24.97;53.63
69717;BME280;67420;46.144;19.666;2023-07-29T08:42:41;99833.28;;;24.95;53.41
69717;BME280;67420;46.144;19.666;2023-07-29T08:52:45;99841.88;;;24.98;53.55
69717;BME280;67420;46.144;19.666;2023-07-29T09:02:48;99834.47;;;25.00;53.36
69717;BME280;67420;46.144;19.666;2023-07-29T09:12:50;99825.38;;;25.01;53.33
69717;BME280;67420;46.144;19.666;2023-07-29T09:22:56;99822.66;;;25.01;53.21
69717;BME280;67420;46.144;19.666;2023-07-29T09:32:59;99810.38;;;24.99;53.43
69717;BME280;67420;46.144;19.666;2023-07-29T09:43:02;99817.13;;;25.03;53.26
69717;BME280;67420;46.144;19.666;2023-07-29T09:53:04;99796.22;;;25.05;53.30
69717;BME280;67420;46.144;19.666;2023-07-29T10:03:09;99781.53;;;24.99;53.20
69717;BME280;67420;46.144;19.666;2023-07-29T10:13:12;99785.59;;;25.03;53.10
69717;BME280;67420;46.144;19.666;2023-07-29T10:23:17;99782.91;;;25.03;53.61
69717;BME280;67420;46.144;19.666;2023-07-29T10:33:19;99771.44;;;25.01;53.32
69717;BME280;67420;46.144;19.666;2023-07-29T10:43:35;99777.16;;;25.07;53.11
69717;BME280;67420;46.144;19.666;2023-07-29T10:53:39;99771.44;;;25.01;53.20
69717;BME280;67420;46.144;19.666;2023-07-29T11:03:41;99753.22;;;25.03;53.55
69717;BME280;67420;46.144;19.666;2023-07-29T11:13:43;99761.31;;;25.03;53.72
69717;BME280;67420;46.144;19.666;2023-07-29T11:23:45;99750.38;;;25.05;53.63
69717;BME280;67420;46.144;19.666;2023-07-29T11:33:47;99767.41;;;25.06;53.48
69717;BME280;67420;46.144;19.666;2023-07-29T11:43:49;99750.19;;;25.07;53.48
69717;BME280;67420;46.144;19.666;2023-07-29T11:53:52;99746.66;;;25.06;53.49
69717;BME280;67420;46.144;19.666;2023-07-29T12:03:55;99759.13;;;25.07;53.44
69717;BME280;67420;46.144;19.666;2023-07-29T12:14:00;99741.59;;;25.03;53.48
69717;BME280;67420;46.144;19.666;2023-07-29T12:24:03;99735.03;;;25.06;53.67
69717;BME280;67420;46.144;19.666;2023-07-29T12:34:05;99734.88;;;25.07;53.37
69717;BME280;67420;46.144;19.666;2023-07-29T12:44:07;99729.31;;;25.09;53.75
69717;BME280;67420;46.144;19.666;2023-07-29T12:54:09;99733.00;;;25.08;53.44
69717;BME280;67420;46.144;19.666;2023-07-29T13:04:11;99723.06;;;25.08;53.86
69717;BME280;67420;46.144;19.666;2023-07-29T13:14:14;99723.06;;;25.08;53.45
69717;BME280;67420;46.144;19.666;2023-07-29T13:24:16;99721.38;;;25.07;53.60
69717;BME280;67420;46.144;19.666;2023-07-29T13:34:18;99707.06;;;25.07;53.82
69717;BME280;67420;46.144;19.666;2023-07-29T13:44:20;99707.72;;;25.09;53.70
69717;BME280;67420;46.144;19.666;2023-07-29T13:54:22;99701.50;;;25.08;53.63
69717;BME280;67420;46.144;19.666;2023-07-29T14:04:24;99681.59;;;25.09;53.57
69717;BME280;67420;46.144;19.666;2023-07-29T14:14:26;99669.13;;;25.08;53.68
69717;BME280;67420;46.144;19.666;2023-07-29T14:24:28;99652.09;;;25.08;53.66
69717;BME280;67420;46.144;19.666;2023-07-29T14:34:30;99658.84;;;25.12;53.61
69717;BME280;67420;46.144;19.666;2023-07-29T14:44:32;99661.53;;;25.12;53.58
69717;BME280;67420;46.144;19.666;2023-07-29T14:54:34;99647.22;;;25.11;53.84
69717;BME280;67420;46.144;19.666;2023-07-29T15:04:35;99634.56;;;25.12;53.89
69717;BME280;67420;46.144;19.666;2023-07-29T15:14:39;99625.13;;;25.08;53.58
69717;BME280;67420;46.144;19.666;2023-07-29T15:24:41;99630.19;;;25.11;53.59
69717;BME280;67420;46.144;19.666;2023-07-29T15:34:46;99630.88;;;25.13;53.88
69717;BME280;67420;46.144;19.666;2023-07-29T15:44:47;99628.16;;;25.13;53.77
69717;BME280;67420;46.144;19.666;2023-07-29T15:54:49;99624.97;;;25.09;53.85
69717;BME280;67420;46.144;19.666;2023-07-29T16:04:53;99629.00;;;25.13;53.74
69717;BME280;67420;46.144;19.666;2023-07-29T16:14:56;99630.19;;;25.11;53.48
69717;BME280;67420;46.144;19.666;2023-07-29T16:24:58;99628.00;;;25.14;53.62
69717;BME280;67420;46.144;19.666;2023-07-29T16:35:00;99626.66;;;25.10;53.63
69717;BME280;67420;46.144;19.666;2023-07-29T16:45:02;99654.78;;;25.16;53.60
69717;BME280;67420;46.144;19.666;2023-07-29T16:55:05;99650.94;;;25.10;53.54
69717;BME280;67420;46.144;19.666;2023-07-29T17:05:08;99669.13;;;25.16;53.87
69717;BME280;67420;46.144;19.666;2023-07-29T17:15:10;99690.88;;;25.15;53.78
69717;BME280;67420;46.144;19.666;2023-07-29T17:25:12;99697.63;;;25.11;53.83
69717;BME280;67420;46.144;19.666;2023-07-29T17:35:14;99708.75;;;25.16;53.80
69717;BME280;67420;46.144;19.666;2023-07-29T17:45:16;99698.28;;;25.13;53.88
69717;BME280;67420;46.144;19.666;2023-07-29T17:55:18;99700.31;;;25.11;53.84
69717;BME280;67420;46.144;19.666;2023-07-29T18:05:20;99715.16;;;25.15;53.99
69717;BME280;67420;46.144;19.666;2023-07-29T18:15:22;99729.63;;;25.14;53.62
69717;BME280;67420;46.144;19.666;2023-07-29T18:25:25;99729.47;;;25.15;53.99
69717;BME280;67420;46.144;19.666;2023-07-29T18:35:27;99727.94;;;25.13;53.80
69717;BME280;67420;46.144;19.666;2023-07-29T18:45:32;99735.19;;;25.12;53.87
69717;BME280;67420;46.144;19.666;2023-07-29T18:55:34;99746.66;;;25.14;53.92
69717;BME280;67420;46.144;19.666;2023-07-29T19:05:36;99727.13;;;25.12;53.77
69717;BME280;67420;46.144;19.666;2023-07-29T19:15:38;99742.28;;;25.13;53.63
69717;BME280;67420;46.144;19.666;2023-07-29T19:25:48;99737.06;;;25.12;53.84
69717;BME280;67420;46.144;19.666;2023-07-29T19:35:54;99746.50;;;25.16;53.94
69717;BME280;67420;46.144;19.666;2023-07-29T19:45:58;99746.31;;;25.09;53.70
69717;BME280;67420;46.144;19.666;2023-07-29T19:56:04;99739.75;;;25.12;53.68
69717;BME280;67420;46.144;19.666;2023-07-29T20:06:06;99743.97;;;25.14;54.10
69717;BME280;67420;46.144;19.666;2023-07-29T20:16:08;99746.84;;;25.13;53.58
69717;BME280;67420;46.144;19.666;2023-07-29T20:26:10;99737.41;;;25.09;54.03
69717;BME280;67420;46.144;19.666;2023-07-29T20:36:12;99742.13;;;25.15;53.82
69717;BME280;67420;46.144;19.666;2023-07-29T20:46:22;99751.22;;;25.14;53.98
69717;BME280;67420;46.144;19.666;2023-07-29T20:56:25;99745.47;;;25.09;53.81
69717;BME280;67420;46.144;19.666;2023-07-29T21:06:26;99745.16;;;25.12;54.15
69717;BME280;67420;46.144;19.666;2023-07-29T21:16:29;99749.38;;;25.14;54.07
69717;BME280;67420;46.144;19.666;2023-07-29T21:26:31;99758.81;;;25.10;54.21
69717;BME280;67420;46.144;19.666;2023-07-29T21:36:33;99762.69;;;25.16;53.76
69717;BME280;67420;46.144;19.666;2023-07-29T21:46:35;99780.56;;;25.17;53.90
69717;BME280;67420;46.144;19.666;2023-07-29T21:56:36;99773.13;;;25.11;54.14
69717;BME280;67420;46.144;19.666;2023-07-29T22:06:38;99774.13;;;25.10;53.81
69717;BME280;67420;46.144;19.666;2023-07-29T22:16:41;99772.44;;;25.09;54.18
69717;BME280;67420;46.144;19.666;2023-07-29T22:26:44;99794.69;;;25.11;54.07
69717;BME280;67420;46.144;19.666;2023-07-29T22:36:46;99798.91;;;25.13;54.20
69717;BME280;67420;46.144;19.666;2023-07-29T22:46:48;99794.69;;;25.11;54.21
69717;BME280;67420;46.144;19.666;2023-07-29T22:56:50;99792.19;;;25.09;54.16
69717;BME280;67420;46.144;19.666;2023-07-29T23:06:52;99783.25;;;25.09;54.02
69717;BME280;67420;46.144;19.666;2023-07-29T23:16:54;99785.28;;;25.15;54.10
69717;BME280;67420;46.144;19.666;2023-07-29T23:26:56;99772.28;;;25.10;53.94
69717;BME280;67420;46.144;19.666;2023-07-29T23:36:59;99778.34;;;25.12;54.16
69717;BME280;67420;46.144;19.666;2023-07-29T23:47:01;99782.75;;;25.13;54.09
69717;BME280;67420;46.144;19.666;2023-07-29T23:57:05;99765.88;;;25.11;53.85
